Chief — WCZ2047 — position and weather

sailwx.info

Track history (hours):
 
Tides and Currents Weather Stations Pressure Air Temp Water Temp Dewpoint Dewpoint Depression Visibility Wind Speed Wind Dir Waves Ship Positions

Chief

Owner: Crowley Marine Services, SEATTLE, WA. More information available from US FCC via Universal Licensing System and Coast Guard Vessel Documentation Center.

Last reported at 2018-Feb-22 22:30 UTC. Time now 2018-Feb-22 22:58 UTC.
Position N 47°43' W 122°28'.

Length 34 m; draft 5.1 m.

Type: Tug. MMSI: 366764740.

Date/timePositionNaut miles runAvg speedWind from/ knotsBaromVisibWave heightAir tempDewpointWater temp
2018-Feb-22 22:30N 47°43' W 122°28'5 9.0
2018-Feb-22 22:00N 47°47' W 122°27'4 8.7
2018-Feb-22 21:30N 47°51' W 122°29'4 7.6
2018-Feb-22 21:00N 47°55' W 122°30'12 1.9
2018-Feb-22 14:35N 48°06' W 122°39'2 7.5
2018-Feb-22 14:21N 48°04' W 122°38'3 7.0
2018-Feb-22 13:54N 48°01' W 122°37'3 7.5
2018-Feb-22 13:29N 47°58' W 122°34'4 8.0
2018-Feb-22 13:00N 47°56' W 122°30'4 7.9
2018-Feb-22 12:30N 47°52' W 122°28'4 8.6
2018-Feb-22 12:00N 47°48' W 122°26'4 8.7
2018-Feb-22 11:30N 47°44' W 122°26'4 8.6
2018-Feb-22 11:00N 47°40' W 122°27'4 8.8
2018-Feb-22 10:30N 47°36' W 122°23'1 2.9
2018-Feb-22 10:00N 47°35' W 122°21'0 0.0
2018-Feb-22 09:30N 47°35' W 122°21'0 0.0
2018-Feb-22 09:00N 47°35' W 122°21'0 0.0
2018-Feb-22 08:30N 47°35' W 122°21'0 0.0
2018-Feb-22 08:00N 47°35' W 122°21'0 0.0
2018-Feb-22 07:30N 47°35' W 122°21'0 0.0
2018-Feb-22 07:00N 47°35' W 122°21'0 0.0
2018-Feb-22 06:30N 47°35' W 122°21'0 0.0
2018-Feb-22 06:00N 47°35' W 122°21'0 0.0
2018-Feb-22 05:28N 47°35' W 122°21'0 0.0
2018-Feb-22 05:00N 47°35' W 122°21'0 0.0
2018-Feb-22 04:29N 47°35' W 122°21'0 0.0
2018-Feb-22 04:00N 47°35' W 122°21'2 4.0
2018-Feb-22 03:30N 47°36' W 122°24'4 7.9
2018-Feb-22 03:00N 47°32' W 122°26'4 8.4
2018-Feb-22 02:30N 47°28' W 122°24'4 8.4
2018-Feb-22 02:00N 47°24' W 122°22'4 7.2
2018-Feb-22 01:30N 47°21' W 122°24'4 7.8
2018-Feb-22 01:00N 47°18' W 122°27'2 3.5
2018-Feb-22 00:30N 47°16' W 122°25'1 1.8
2018-Feb-22 00:00N 47°17' W 122°26'2 3.4
2018-Feb-21 23:30N 47°15' W 122°26'0 0.0
2018-Feb-21 23:00N 47°15' W 122°26'0 0.0
2018-Feb-21 22:30N 47°15' W 122°26'0 0.0
2018-Feb-21 22:00N 47°15' W 122°26'0 0.0
2018-Feb-21 21:29N 47°15' W 122°26'0 0.0
2018-Feb-21 21:00N 47°15' W 122°26'0 0.0
2018-Feb-21 20:30N 47°15' W 122°26'0 0.0
2018-Feb-21 20:00N 47°15' W 122°26'0 0.0
2018-Feb-21 19:30N 47°15' W 122°26'0 0.0
2018-Feb-21 19:00N 47°15' W 122°26'0 0.0
2018-Feb-21 18:30N 47°15' W 122°26'0 0.0
2018-Feb-21 18:00N 47°15' W 122°26'0 0.0
2018-Feb-21 17:30N 47°15' W 122°26'0 0.0
2018-Feb-21 17:00N 47°15' W 122°26'0 0.0
2018-Feb-21 16:30N 47°15' W 122°26'0 0.0
2018-Feb-21 16:00N 47°15' W 122°26'0 0.0
2018-Feb-21 15:30N 47°15' W 122°26'0 0.0
2018-Feb-21 15:00N 47°15' W 122°26'0 0.0
2018-Feb-21 14:30N 47°15' W 122°26'0 0.0
2018-Feb-21 14:00N 47°15' W 122°26'2 3.1
2018-Feb-21 13:30N 47°17' W 122°25'0 0.1
2018-Feb-21 13:00N 47°17' W 122°25'1 2.2
2018-Feb-21 12:27N 47°18' W 122°26'0 0.0
2018-Feb-21 12:00N 47°18' W 122°26'0 0.0
2018-Feb-21 11:30N 47°18' W 122°26'0 0.0
2018-Feb-21 11:00N 47°18' W 122°26'0 0.0
2018-Feb-21 10:28N 47°18' W 122°26'0 0.1
2018-Feb-21 10:00N 47°18' W 122°26'0 0.1
2018-Feb-21 09:30N 47°18' W 122°26'0 0.0
2018-Feb-21 09:00N 47°18' W 122°26'1 2.8
2018-Feb-21 08:30N 47°17' W 122°25'1 1.7
2018-Feb-21 08:00N 47°16' W 122°24'0 0.4
2018-Feb-21 07:30N 47°16' W 122°24'2 3.1
2018-Feb-21 06:59N 47°15' W 122°26'0 0.4
2018-Feb-21 06:30N 47°15' W 122°26'0 0.0
2018-Feb-21 05:59N 47°15' W 122°26'0 0.0
2018-Feb-21 05:25N 47°15' W 122°26'0 0.0
2018-Feb-21 04:59N 47°15' W 122°26'0 0.0
2018-Feb-21 04:26N 47°15' W 122°26'0 0.0
2018-Feb-21 03:48N 47°15' W 122°26'0 0.0
2018-Feb-21 03:30N 47°15' W 122°26'0 0.0
2018-Feb-21 02:54N 47°15' W 122°26'0 0.0
2018-Feb-21 02:27N 47°15' W 122°26'0 0.0
2018-Feb-21 02:00N 47°15' W 122°26'0 0.0
2018-Feb-21 01:20N 47°15' W 122°26'0 0.0
2018-Feb-20 23:21N 47°15' W 122°26'0 0.0
2018-Feb-20 22:59N 47°15' W 122°26'0 0.0
2018-Feb-20 22:26N 47°15' W 122°26'0 0.0
2018-Feb-20 21:56N 47°15' W 122°26'0 0.0
2018-Feb-20 21:23N 47°15' W 122°26'0 0.0
2018-Feb-20 20:42N 47°15' W 122°26'0 0.0
2018-Feb-20 20:30N 47°15' W 122°26'0 0.0
2018-Feb-20 19:55N 47°15' W 122°26'0 0.0
2018-Feb-20 19:22N 47°15' W 122°26'0 0.0
2018-Feb-20 19:00N 47°15' W 122°26'0 0.0
2018-Feb-20 18:30N 47°15' W 122°26'0 0.0
2018-Feb-20 18:00N 47°15' W 122°26'3 6.8
2018-Feb-20 17:30N 47°18' W 122°27'4 7.7
2018-Feb-20 17:00N 47°22' W 122°24'3 6.9
2018-Feb-20 16:30N 47°25' W 122°24'4 8.8
2018-Feb-20 16:00N 47°29' W 122°26'4 8.6
2018-Feb-20 15:30N 47°34' W 122°27'4 8.0
2018-Feb-20 15:00N 47°36' W 122°22'1 2.8
2018-Feb-20 14:30N 47°35' W 122°21'1 1.4
2018-Feb-20 14:00N 47°36' W 122°21'1 1.3
2018-Feb-20 13:30N 47°36' W 122°21'1 2.1
2018-Feb-20 13:00N 47°35' W 122°21'0 0.0
2018-Feb-20 12:30N 47°35' W 122°21'0 0.0
2018-Feb-20 12:00N 47°35' W 122°21'0 0.6
2018-Feb-20 11:30N 47°36' W 122°21'0 0.5
2018-Feb-20 11:00N 47°35' W 122°21'0 0.0
2018-Feb-20 10:30N 47°35' W 122°21'0 0.9
2018-Feb-20 09:57N 47°35' W 122°21'0 0.0
2018-Feb-20 09:26N 47°35' W 122°21'0 0.7
2018-Feb-20 09:00N 47°35' W 122°21'4 7.0
2018-Feb-20 08:30N 47°37' W 122°25'4 8.0
2018-Feb-20 08:00N 47°41' W 122°28'4 8.5
2018-Feb-20 07:30N 47°45' W 122°27'4 8.5
2018-Feb-20 07:00N 47°49' W 122°28'4 8.0
2018-Feb-20 06:29N 47°53' W 122°30'3 6.7
2018-Feb-20 06:00N 47°56' W 122°32'38 1.0
2018-Feb-18 15:48N 48°08' W 123°26'0 0.0
2018-Feb-18 15:24N 48°08' W 123°26'3 7.0
2018-Feb-18 15:00N 48°09' W 123°23'4 8.2
2018-Feb-18 14:30N 48°12' W 123°18'4 7.8
2018-Feb-18 13:58N 48°14' W 123°13'12 7.3
2018-Feb-18 12:22N 48°20' W 122°58'3 6.7
2018-Feb-18 11:58N 48°22' W 122°55'3 6.3
2018-Feb-18 11:28N 48°24' W 122°51'2 4.9
2018-Feb-18 11:00N 48°25' W 122°48'3 5.8
2018-Feb-18 10:30N 48°27' W 122°46'3 6.4
2018-Feb-18 10:00N 48°30' W 122°43'3 5.5
2018-Feb-18 09:30N 48°31' W 122°39'3 6.6
2018-Feb-18 09:00N 48°31' W 122°35'0 0.4
2018-Feb-18 08:30N 48°31' W 122°35'0 0.2
2018-Feb-18 08:00N 48°31' W 122°35'3 5.4
2018-Feb-18 07:30N 48°33' W 122°35'4 8.5
2018-Feb-18 07:00N 48°37' W 122°38'14 5.5
2018-Feb-18 04:24N 48°50' W 122°45'3 8.2
2018-Feb-18 04:00N 48°47' W 122°44'2 0.7
2018-Feb-18 00:20N 48°45' W 122°43'0 0.0
2018-Feb-17 23:54N 48°45' W 122°43'0 0.1
2018-Feb-17 23:13N 48°45' W 122°43'0 0.1
2018-Feb-17 22:48N 48°45' W 122°43'7 0.8
2018-Feb-17 14:14N 48°52' W 122°46'0 0.2
2018-Feb-17 13:42N 48°52' W 122°46'1 3.3
2018-Feb-17 13:20N 48°51' W 122°45'2 6.4
2018-Feb-17 13:00N 48°49' W 122°44'1 0.3
2018-Feb-17 11:28N 48°48' W 122°43'0 0.0
2018-Feb-17 11:00N 48°48' W 122°43'0 0.0
2018-Feb-17 10:30N 48°48' W 122°43'0 0.0
2018-Feb-17 10:00N 48°48' W 122°43'1 2.1
2018-Feb-17 09:30N 48°48' W 122°44'4 9.0
2018-Feb-17 09:00N 48°43' W 122°44'4 8.1
2018-Feb-17 08:30N 48°39' W 122°43'4 7.3
2018-Feb-17 08:00N 48°36' W 122°45'4 7.4
2018-Feb-17 07:30N 48°32' W 122°45'3 6.4
2018-Feb-17 07:00N 48°29' W 122°44'9 6.4
2018-Feb-17 05:34N 48°20' W 122°45'8 0.7
2018-Feb-16 18:05N 48°21' W 122°57'1 8.0
2018-Feb-16 17:55N 48°22' W 122°55'4 8.7
2018-Feb-16 17:28N 48°24' W 122°50'510.1
2018-Feb-16 17:00N 48°27' W 122°46'510.3
2018-Feb-16 16:30N 48°32' W 122°45'510.6
2018-Feb-16 16:00N 48°38' W 122°45'13 4.7
2018-Feb-16 13:15N 48°51' W 122°45'2 2.0
2018-Feb-16 12:21N 48°49' W 122°45'1 2.0
2018-Feb-16 11:44N 48°48' W 122°45'1 2.6
2018-Feb-16 11:30N 48°47' W 122°45'3 5.8
2018-Feb-16 11:00N 48°44' W 122°45'4 7.8
2018-Feb-16 10:30N 48°41' W 122°42'4 8.8
2018-Feb-16 10:00N 48°36' W 122°45'510.0
2018-Feb-16 09:30N 48°31' W 122°45'34 9.1
2018-Feb-16 05:47N 47°58' W 122°34'311.6
2018-Feb-16 05:30N 47°56' W 122°31'510.8
2018-Feb-16 05:00N 47°51' W 122°27'510.5
2018-Feb-16 04:30N 47°46' W 122°26'510.2
2018-Feb-16 04:00N 47°41' W 122°26'5 9.3
2018-Feb-16 03:30N 47°37' W 122°24'3 5.4
2018-Feb-16 03:00N 47°35' W 122°21'0 0.4
2018-Feb-16 02:01N 47°35' W 122°21'0 0.0
2018-Feb-16 01:59N 47°35' W 122°21'1 2.2
2018-Feb-16 01:30N 47°36' W 122°21'1 1.1
2018-Feb-16 01:00N 47°35' W 122°21'0 0.1
2018-Feb-16 00:30N 47°35' W 122°21'3 5.5
2018-Feb-16 00:00N 47°35' W 122°25'4 8.4
2018-Feb-15 23:30N 47°31' W 122°25'5 9.0
2018-Feb-15 23:00N 47°27' W 122°23'4 8.7
2018-Feb-15 22:30N 47°22' W 122°22'4 8.3
2018-Feb-15 22:00N 47°19' W 122°26'4 7.5
2018-Feb-15 21:30N 47°15' W 122°26'0 0.3
2018-Feb-15 21:00N 47°15' W 122°26'0 0.0
2018-Feb-15 20:30N 47°15' W 122°26'0 0.0
2018-Feb-15 19:33N 47°15' W 122°26'0 0.0
2018-Feb-15 19:30N 47°15' W 122°26'0 0.0
2018-Feb-15 18:32N 47°15' W 122°26'0 0.0
2018-Feb-15 18:30N 47°15' W 122°26'0 0.0
2018-Feb-15 18:00N 47°15' W 122°26'0 0.0
2018-Feb-15 17:29N 47°15' W 122°26'0 0.0
2018-Feb-15 17:00N 47°15' W 122°26'0 0.0
2018-Feb-15 16:30N 47°15' W 122°26'0 0.0
2018-Feb-15 16:00N 47°15' W 122°26'0 0.0
2018-Feb-15 15:30N 47°15' W 122°26'0 0.0
2018-Feb-15 14:59N 47°15' W 122°26'0 0.0
2018-Feb-15 14:30N 47°15' W 122°26'0 0.0
2018-Feb-15 14:00N 47°15' W 122°26'0 0.0
2018-Feb-15 13:28N 47°15' W 122°26'0 0.0
2018-Feb-15 13:00N 47°15' W 122°26'0 0.0
2018-Feb-15 12:30N 47°15' W 122°26'0 0.0
2018-Feb-15 12:00N 47°15' W 122°26'0 0.0
2018-Feb-15 11:30N 47°15' W 122°26'0 0.0
2018-Feb-15 11:00N 47°15' W 122°26'0 0.0
2018-Feb-15 10:30N 47°15' W 122°26'0 0.0
2018-Feb-15 10:00N 47°15' W 122°26'0 0.0
2018-Feb-15 09:29N 47°15' W 122°26'0 0.0
2018-Feb-15 09:00N 47°15' W 122°26'2 2.4
2018-Feb-15 08:19N 47°17' W 122°24'1 3.4
2018-Feb-15 08:00N 47°16' W 122°23'0 0.1
2018-Feb-15 07:30N 47°16' W 122°23'0 0.0
2018-Feb-15 07:00N 47°16' W 122°23'0 0.1
2018-Feb-15 06:29N 47°16' W 122°23'2 4.1
2018-Feb-15 06:00N 47°17' W 122°26'1 2.6
2018-Feb-15 05:30N 47°15' W 122°26'0 0.0
2018-Feb-15 05:00N 47°15' W 122°26'0 0.0
2018-Feb-15 04:30N 47°15' W 122°26'0 0.0
2018-Feb-15 03:48N 47°15' W 122°26'0 0.0
2018-Feb-15 03:30N 47°15' W 122°26'0 0.0
2018-Feb-15 02:40N 47°15' W 122°26'0 0.0
2018-Feb-15 02:30N 47°15' W 122°26'0 0.0
2018-Feb-15 01:59N 47°15' W 122°26'2 1.9
2018-Feb-15 00:48N 47°15' W 122°23'2 2.8
2018-Feb-15 00:10N 47°17' W 122°25'1 3.6
2018-Feb-15 00:00N 47°17' W 122°25'0 0.4
2018-Feb-14 23:30N 47°17' W 122°25'2 3.6
2018-Feb-14 23:00N 47°16' W 122°23'0 0.4
2018-Feb-14 22:21N 47°16' W 122°23'2 5.8
2018-Feb-14 22:00N 47°17' W 122°26'1 2.8
2018-Feb-14 21:30N 47°15' W 122°26'0 0.0
2018-Feb-14 20:59N 47°15' W 122°26'0 0.0
2018-Feb-14 20:30N 47°15' W 122°26'0 0.0
2018-Feb-14 19:59N 47°15' W 122°26'0 0.0
2018-Feb-14 19:20N 47°15' W 122°26'0 0.0
2018-Feb-14 19:00N 47°15' W 122°26'0 0.0
2018-Feb-14 16:20N 47°15' W 122°26'0 0.0
2018-Feb-14 16:00N 47°15' W 122°26'2 1.7
2018-Feb-14 14:45N 47°15' W 122°23'2 3.6
2018-Feb-14 14:17N 47°17' W 122°25'1 4.8
2018-Feb-14 14:00N 47°18' W 122°26'0 0.5
2018-Feb-14 13:08N 47°18' W 122°26'0 0.2
2018-Feb-14 12:01N 47°18' W 122°26'0 8.0
2018-Feb-14 12:00N 47°17' W 122°26'1 2.9
2018-Feb-14 11:29N 47°16' W 122°25'0 0.8
2018-Feb-14 11:00N 47°16' W 122°25'1 1.8
2018-Feb-14 10:21N 47°15' W 122°26'0 0.0
2018-Feb-14 10:00N 47°15' W 122°26'0 0.0
2018-Feb-14 09:30N 47°15' W 122°26'0 0.0
2018-Feb-14 08:59N 47°15' W 122°26'0 0.0
2018-Feb-14 08:30N 47°15' W 122°26'0 0.0
2018-Feb-14 08:00N 47°15' W 122°26'0 0.0
2018-Feb-14 07:30N 47°15' W 122°26'0 0.0
2018-Feb-14 07:00N 47°15' W 122°26'0 0.0
2018-Feb-14 06:30N 47°15' W 122°26'0 0.0
2018-Feb-14 06:00N 47°15' W 122°26'0 0.0
2018-Feb-14 05:30N 47°15' W 122°26'0 0.0
2018-Feb-14 05:00N 47°15' W 122°26'0 0.0
2018-Feb-14 04:30N 47°15' W 122°26'0 0.0
2018-Feb-14 04:00N 47°15' W 122°26'0 0.0
2018-Feb-14 03:30N 47°15' W 122°26'0 0.0
2018-Feb-14 03:00N 47°15' W 122°26'0 0.0
2018-Feb-14 02:30N 47°15' W 122°26'1 2.5
2018-Feb-14 02:00N 47°16' W 122°26'1 1.2
2018-Feb-14 01:30N 47°16' W 122°25'1 1.3
2018-Feb-14 01:00N 47°17' W 122°25'1 1.2
2018-Feb-14 00:04N 47°18' W 122°26'0 0.0
2018-Feb-13 23:54N 47°18' W 122°26'1 2.6
2018-Feb-13 23:29N 47°17' W 122°25'0 0.3
2018-Feb-13 22:58N 47°17' W 122°25'1 1.3
2018-Feb-13 22:30N 47°17' W 122°26'2 1.1
2018-Feb-13 21:01N 47°15' W 122°26'0 0.0
2018-Feb-13 20:59N 47°15' W 122°26'0 0.0
2018-Feb-13 20:24N 47°15' W 122°26'0 0.0
2018-Feb-13 19:11N 47°15' W 122°26'0 0.0
2018-Feb-13 18:53N 47°15' W 122°26'0 0.0
2018-Feb-13 18:16N 47°15' W 122°26'0 0.0
2018-Feb-13 18:00N 47°15' W 122°26'0 0.0
2018-Feb-13 17:28N 47°15' W 122°26'0 0.0
2018-Feb-13 16:59N 47°15' W 122°26'0 0.0
2018-Feb-13 15:19N 47°15' W 122°26'0 0.0
2018-Feb-13 15:00N 47°15' W 122°26'1 1.4
2018-Feb-13 14:30N 47°16' W 122°26'1 2.5
2018-Feb-13 14:00N 47°17' W 122°25'0 0.1
2018-Feb-13 13:30N 47°16' W 122°25'2 2.9
2018-Feb-13 12:59N 47°15' W 122°26'0 0.0
2018-Feb-13 12:30N 47°15' W 122°26'0 0.0
2018-Feb-13 12:00N 47°15' W 122°26'0 0.0
2018-Feb-13 11:24N 47°15' W 122°26'0 0.0
2018-Feb-13 11:00N 47°15' W 122°26'0 0.0
2018-Feb-13 10:07N 47°15' W 122°26'0 0.1
2018-Feb-13 10:00N 47°15' W 122°26'0 0.0
2018-Feb-13 09:30N 47°15' W 122°26'0 0.0
2018-Feb-13 08:58N 47°15' W 122°26'0 0.0
2018-Feb-13 08:30N 47°15' W 122°26'0 0.0
2018-Feb-13 07:59N 47°15' W 122°26'0 0.0
2018-Feb-13 07:26N 47°15' W 122°26'0 0.0
2018-Feb-13 07:00N 47°15' W 122°26'0 0.0
2018-Feb-13 06:29N 47°15' W 122°26'0 0.0
2018-Feb-13 05:58N 47°15' W 122°26'0 0.0
2018-Feb-13 05:30N 47°15' W 122°26'0 0.0
2018-Feb-13 05:00N 47°15' W 122°26'0 0.0
2018-Feb-13 04:30N 47°15' W 122°26'0 0.0
2018-Feb-13 03:38N 47°15' W 122°26'0 0.7
2018-Feb-13 03:30N 47°15' W 122°26'2 3.3
2018-Feb-13 03:00N 47°16' W 122°24'1 1.6
2018-Feb-13 02:29N 47°16' W 122°23'0 0.2
2018-Feb-13 01:56N 47°16' W 122°23'0 0.1
2018-Feb-13 01:29N 47°16' W 122°23'2 4.5
2018-Feb-13 01:00N 47°16' W 122°26'1 1.2
2018-Feb-13 00:30N 47°15' W 122°26'0 0.0
2018-Feb-13 00:00N 47°15' W 122°26'0 0.0
2018-Feb-12 23:11N 47°15' W 122°26'0 0.0
2018-Feb-12 22:52N 47°15' W 122°26'  
Track history (hours):
 
Tides and Currents Weather Stations Pressure Air Temp Water Temp Dewpoint Dewpoint Depression Visibility Wind Speed Wind Dir Waves Ship Positions

Chief

Owner: Crowley Marine Services, SEATTLE, WA. More information available from US FCC via Universal Licensing System and Coast Guard Vessel Documentation Center.

Last reported at 2018-Feb-22 22:30 UTC. Time now 2018-Feb-22 22:58 UTC.
Position N 47°43' W 122°28'.

Length 34 m; draft 5.1 m.

Type: Tug. MMSI: 366764740.

Date/timePositionNaut miles runAvg speedWind from/ knotsBaromVisibWave heightAir tempDewpointWater temp
2018-Feb-22 22:30N 47°43' W 122°28'5 9.0
2018-Feb-22 22:00N 47°47' W 122°27'4 8.7
2018-Feb-22 21:30N 47°51' W 122°29'4 7.6
2018-Feb-22 21:00N 47°55' W 122°30'12 1.9
2018-Feb-22 14:35N 48°06' W 122°39'2 7.5
2018-Feb-22 14:21N 48°04' W 122°38'3 7.0
2018-Feb-22 13:54N 48°01' W 122°37'3 7.5
2018-Feb-22 13:29N 47°58' W 122°34'4 8.0
2018-Feb-22 13:00N 47°56' W 122°30'4 7.9
2018-Feb-22 12:30N 47°52' W 122°28'4 8.6
2018-Feb-22 12:00N 47°48' W 122°26'4 8.7
2018-Feb-22 11:30N 47°44' W 122°26'4 8.6
2018-Feb-22 11:00N 47°40' W 122°27'4 8.8
2018-Feb-22 10:30N 47°36' W 122°23'1 2.9
2018-Feb-22 10:00N 47°35' W 122°21'0 0.0
2018-Feb-22 09:30N 47°35' W 122°21'0 0.0
2018-Feb-22 09:00N 47°35' W 122°21'0 0.0
2018-Feb-22 08:30N 47°35' W 122°21'0 0.0
2018-Feb-22 08:00N 47°35' W 122°21'0 0.0
2018-Feb-22 07:30N 47°35' W 122°21'0 0.0
2018-Feb-22 07:00N 47°35' W 122°21'0 0.0
2018-Feb-22 06:30N 47°35' W 122°21'0 0.0
2018-Feb-22 06:00N 47°35' W 122°21'0 0.0
2018-Feb-22 05:28N 47°35' W 122°21'0 0.0
2018-Feb-22 05:00N 47°35' W 122°21'0 0.0
2018-Feb-22 04:29N 47°35' W 122°21'0 0.0
2018-Feb-22 04:00N 47°35' W 122°21'2 4.0
2018-Feb-22 03:30N 47°36' W 122°24'4 7.9
2018-Feb-22 03:00N 47°32' W 122°26'4 8.4
2018-Feb-22 02:30N 47°28' W 122°24'4 8.4
2018-Feb-22 02:00N 47°24' W 122°22'4 7.2
2018-Feb-22 01:30N 47°21' W 122°24'4 7.8
2018-Feb-22 01:00N 47°18' W 122°27'2 3.5
2018-Feb-22 00:30N 47°16' W 122°25'1 1.8
2018-Feb-22 00:00N 47°17' W 122°26'2 3.4
2018-Feb-21 23:30N 47°15' W 122°26'0 0.0
2018-Feb-21 23:00N 47°15' W 122°26'0 0.0
2018-Feb-21 22:30N 47°15' W 122°26'0 0.0
2018-Feb-21 22:00N 47°15' W 122°26'0 0.0
2018-Feb-21 21:29N 47°15' W 122°26'0 0.0
2018-Feb-21 21:00N 47°15' W 122°26'0 0.0
2018-Feb-21 20:30N 47°15' W 122°26'0 0.0
2018-Feb-21 20:00N 47°15' W 122°26'0 0.0
2018-Feb-21 19:30N 47°15' W 122°26'0 0.0
2018-Feb-21 19:00N 47°15' W 122°26'0 0.0
2018-Feb-21 18:30N 47°15' W 122°26'0 0.0
2018-Feb-21 18:00N 47°15' W 122°26'0 0.0
2018-Feb-21 17:30N 47°15' W 122°26'0 0.0
2018-Feb-21 17:00N 47°15' W 122°26'0 0.0
2018-Feb-21 16:30N 47°15' W 122°26'0 0.0
2018-Feb-21 16:00N 47°15' W 122°26'0 0.0
2018-Feb-21 15:30N 47°15' W 122°26'0 0.0
2018-Feb-21 15:00N 47°15' W 122°26'0 0.0
2018-Feb-21 14:30N 47°15' W 122°26'0 0.0
2018-Feb-21 14:00N 47°15' W 122°26'2 3.1
2018-Feb-21 13:30N 47°17' W 122°25'0 0.1
2018-Feb-21 13:00N 47°17' W 122°25'1 2.2
2018-Feb-21 12:27N 47°18' W 122°26'0 0.0
2018-Feb-21 12:00N 47°18' W 122°26'0 0.0
2018-Feb-21 11:30N 47°18' W 122°26'0 0.0
2018-Feb-21 11:00N 47°18' W 122°26'0 0.0
2018-Feb-21 10:28N 47°18' W 122°26'0 0.1
2018-Feb-21 10:00N 47°18' W 122°26'0 0.1
2018-Feb-21 09:30N 47°18' W 122°26'0 0.0
2018-Feb-21 09:00N 47°18' W 122°26'1 2.8
2018-Feb-21 08:30N 47°17' W 122°25'1 1.7
2018-Feb-21 08:00N 47°16' W 122°24'0 0.4
2018-Feb-21 07:30N 47°16' W 122°24'2 3.1
2018-Feb-21 06:59N 47°15' W 122°26'0 0.4
2018-Feb-21 06:30N 47°15' W 122°26'0 0.0
2018-Feb-21 05:59N 47°15' W 122°26'0 0.0
2018-Feb-21 05:25N 47°15' W 122°26'0 0.0
2018-Feb-21 04:59N 47°15' W 122°26'0 0.0
2018-Feb-21 04:26N 47°15' W 122°26'0 0.0
2018-Feb-21 03:48N 47°15' W 122°26'0 0.0
2018-Feb-21 03:30N 47°15' W 122°26'0 0.0
2018-Feb-21 02:54N 47°15' W 122°26'0 0.0
2018-Feb-21 02:27N 47°15' W 122°26'0 0.0
2018-Feb-21 02:00N 47°15' W 122°26'0 0.0
2018-Feb-21 01:20N 47°15' W 122°26'0 0.0
2018-Feb-20 23:21N 47°15' W 122°26'0 0.0
2018-Feb-20 22:59N 47°15' W 122°26'0 0.0
2018-Feb-20 22:26N 47°15' W 122°26'0 0.0
2018-Feb-20 21:56N 47°15' W 122°26'0 0.0
2018-Feb-20 21:23N 47°15' W 122°26'0 0.0
2018-Feb-20 20:42N 47°15' W 122°26'0 0.0
2018-Feb-20 20:30N 47°15' W 122°26'0 0.0
2018-Feb-20 19:55N 47°15' W 122°26'0 0.0
2018-Feb-20 19:22N 47°15' W 122°26'0 0.0
2018-Feb-20 19:00N 47°15' W 122°26'0 0.0
2018-Feb-20 18:30N 47°15' W 122°26'0 0.0
2018-Feb-20 18:00N 47°15' W 122°26'3 6.8
2018-Feb-20 17:30N 47°18' W 122°27'4 7.7
2018-Feb-20 17:00N 47°22' W 122°24'3 6.9
2018-Feb-20 16:30N 47°25' W 122°24'4 8.8
2018-Feb-20 16:00N 47°29' W 122°26'4 8.6
2018-Feb-20 15:30N 47°34' W 122°27'4 8.0
2018-Feb-20 15:00N 47°36' W 122°22'1 2.8
2018-Feb-20 14:30N 47°35' W 122°21'1 1.4
2018-Feb-20 14:00N 47°36' W 122°21'1 1.3
2018-Feb-20 13:30N 47°36' W 122°21'1 2.1
2018-Feb-20 13:00N 47°35' W 122°21'0 0.0
2018-Feb-20 12:30N 47°35' W 122°21'0 0.0
2018-Feb-20 12:00N 47°35' W 122°21'0 0.6
2018-Feb-20 11:30N 47°36' W 122°21'0 0.5
2018-Feb-20 11:00N 47°35' W 122°21'0 0.0
2018-Feb-20 10:30N 47°35' W 122°21'0 0.9
2018-Feb-20 09:57N 47°35' W 122°21'0 0.0
2018-Feb-20 09:26N 47°35' W 122°21'0 0.7
2018-Feb-20 09:00N 47°35' W 122°21'4 7.0
2018-Feb-20 08:30N 47°37' W 122°25'4 8.0
2018-Feb-20 08:00N 47°41' W 122°28'4 8.5
2018-Feb-20 07:30N 47°45' W 122°27'4 8.5
2018-Feb-20 07:00N 47°49' W 122°28'4 8.0
2018-Feb-20 06:29N 47°53' W 122°30'3 6.7
2018-Feb-20 06:00N 47°56' W 122°32'38 1.0
2018-Feb-18 15:48N 48°08' W 123°26'0 0.0
2018-Feb-18 15:24N 48°08' W 123°26'3 7.0
2018-Feb-18 15:00N 48°09' W 123°23'4 8.2
2018-Feb-18 14:30N 48°12' W 123°18'4 7.8
2018-Feb-18 13:58N 48°14' W 123°13'12 7.3
2018-Feb-18 12:22N 48°20' W 122°58'3 6.7
2018-Feb-18 11:58N 48°22' W 122°55'3 6.3
2018-Feb-18 11:28N 48°24' W 122°51'2 4.9
2018-Feb-18 11:00N 48°25' W 122°48'3 5.8
2018-Feb-18 10:30N 48°27' W 122°46'3 6.4
2018-Feb-18 10:00N 48°30' W 122°43'3 5.5
2018-Feb-18 09:30N 48°31' W 122°39'3 6.6
2018-Feb-18 09:00N 48°31' W 122°35'0 0.4
2018-Feb-18 08:30N 48°31' W 122°35'0 0.2
2018-Feb-18 08:00N 48°31' W 122°35'3 5.4
2018-Feb-18 07:30N 48°33' W 122°35'4 8.5
2018-Feb-18 07:00N 48°37' W 122°38'14 5.5
2018-Feb-18 04:24N 48°50' W 122°45'3 8.2
2018-Feb-18 04:00N 48°47' W 122°44'2 0.7
2018-Feb-18 00:20N 48°45' W 122°43'0 0.0
2018-Feb-17 23:54N 48°45' W 122°43'0 0.1
2018-Feb-17 23:13N 48°45' W 122°43'0 0.1
2018-Feb-17 22:48N 48°45' W 122°43'7 0.8
2018-Feb-17 14:14N 48°52' W 122°46'0 0.2
2018-Feb-17 13:42N 48°52' W 122°46'1 3.3
2018-Feb-17 13:20N 48°51' W 122°45'2 6.4
2018-Feb-17 13:00N 48°49' W 122°44'1 0.3
2018-Feb-17 11:28N 48°48' W 122°43'0 0.0
2018-Feb-17 11:00N 48°48' W 122°43'0 0.0
2018-Feb-17 10:30N 48°48' W 122°43'0 0.0
2018-Feb-17 10:00N 48°48' W 122°43'1 2.1
2018-Feb-17 09:30N 48°48' W 122°44'4 9.0
2018-Feb-17 09:00N 48°43' W 122°44'4 8.1
2018-Feb-17 08:30N 48°39' W 122°43'4 7.3
2018-Feb-17 08:00N 48°36' W 122°45'4 7.4
2018-Feb-17 07:30N 48°32' W 122°45'3 6.4
2018-Feb-17 07:00N 48°29' W 122°44'9 6.4
2018-Feb-17 05:34N 48°20' W 122°45'8 0.7
2018-Feb-16 18:05N 48°21' W 122°57'1 8.0
2018-Feb-16 17:55N 48°22' W 122°55'4 8.7
2018-Feb-16 17:28N 48°24' W 122°50'510.1
2018-Feb-16 17:00N 48°27' W 122°46'510.3
2018-Feb-16 16:30N 48°32' W 122°45'510.6
2018-Feb-16 16:00N 48°38' W 122°45'13 4.7
2018-Feb-16 13:15N 48°51' W 122°45'2 2.0
2018-Feb-16 12:21N 48°49' W 122°45'1 2.0
2018-Feb-16 11:44N 48°48' W 122°45'1 2.6
2018-Feb-16 11:30N 48°47' W 122°45'3 5.8
2018-Feb-16 11:00N 48°44' W 122°45'4 7.8
2018-Feb-16 10:30N 48°41' W 122°42'4 8.8
2018-Feb-16 10:00N 48°36' W 122°45'510.0
2018-Feb-16 09:30N 48°31' W 122°45'34 9.1
2018-Feb-16 05:47N 47°58' W 122°34'311.6
2018-Feb-16 05:30N 47°56' W 122°31'510.8
2018-Feb-16 05:00N 47°51' W 122°27'510.5
2018-Feb-16 04:30N 47°46' W 122°26'510.2
2018-Feb-16 04:00N 47°41' W 122°26'5 9.3
2018-Feb-16 03:30N 47°37' W 122°24'3 5.4
2018-Feb-16 03:00N 47°35' W 122°21'0 0.4
2018-Feb-16 02:01N 47°35' W 122°21'0 0.0
2018-Feb-16 01:59N 47°35' W 122°21'1 2.2
2018-Feb-16 01:30N 47°36' W 122°21'1 1.1
2018-Feb-16 01:00N 47°35' W 122°21'0 0.1
2018-Feb-16 00:30N 47°35' W 122°21'3 5.5
2018-Feb-16 00:00N 47°35' W 122°25'4 8.4
2018-Feb-15 23:30N 47°31' W 122°25'5 9.0
2018-Feb-15 23:00N 47°27' W 122°23'4 8.7
2018-Feb-15 22:30N 47°22' W 122°22'4 8.3
2018-Feb-15 22:00N 47°19' W 122°26'4 7.5
2018-Feb-15 21:30N 47°15' W 122°26'0 0.3
2018-Feb-15 21:00N 47°15' W 122°26'0 0.0
2018-Feb-15 20:30N 47°15' W 122°26'0 0.0
2018-Feb-15 19:33N 47°15' W 122°26'0 0.0
2018-Feb-15 19:30N 47°15' W 122°26'0 0.0
2018-Feb-15 18:32N 47°15' W 122°26'0 0.0
2018-Feb-15 18:30N 47°15' W 122°26'0 0.0
2018-Feb-15 18:00N 47°15' W 122°26'0 0.0
2018-Feb-15 17:29N 47°15' W 122°26'0 0.0
2018-Feb-15 17:00N 47°15' W 122°26'0 0.0
2018-Feb-15 16:30N 47°15' W 122°26'0 0.0
2018-Feb-15 16:00N 47°15' W 122°26'0 0.0
2018-Feb-15 15:30N 47°15' W 122°26'0 0.0
2018-Feb-15 14:59N 47°15' W 122°26'0 0.0
2018-Feb-15 14:30N 47°15' W 122°26'0 0.0
2018-Feb-15 14:00N 47°15' W 122°26'0 0.0
2018-Feb-15 13:28N 47°15' W 122°26'0 0.0
2018-Feb-15 13:00N 47°15' W 122°26'0 0.0
2018-Feb-15 12:30N 47°15' W 122°26'0 0.0
2018-Feb-15 12:00N 47°15' W 122°26'0 0.0
2018-Feb-15 11:30N 47°15' W 122°26'0 0.0
2018-Feb-15 11:00N 47°15' W 122°26'0 0.0
2018-Feb-15 10:30N 47°15' W 122°26'0 0.0
2018-Feb-15 10:00N 47°15' W 122°26'0 0.0
2018-Feb-15 09:29N 47°15' W 122°26'0 0.0
2018-Feb-15 09:00N 47°15' W 122°26'2 2.4
2018-Feb-15 08:19N 47°17' W 122°24'1 3.4
2018-Feb-15 08:00N 47°16' W 122°23'0 0.1
2018-Feb-15 07:30N 47°16' W 122°23'0 0.0
2018-Feb-15 07:00N 47°16' W 122°23'0 0.1
2018-Feb-15 06:29N 47°16' W 122°23'2 4.1
2018-Feb-15 06:00N 47°17' W 122°26'1 2.6
2018-Feb-15 05:30N 47°15' W 122°26'0 0.0
2018-Feb-15 05:00N 47°15' W 122°26'0 0.0
2018-Feb-15 04:30N 47°15' W 122°26'0 0.0
2018-Feb-15 03:48N 47°15' W 122°26'0 0.0
2018-Feb-15 03:30N 47°15' W 122°26'0 0.0
2018-Feb-15 02:40N 47°15' W 122°26'0 0.0
2018-Feb-15 02:30N 47°15' W 122°26'0 0.0
2018-Feb-15 01:59N 47°15' W 122°26'2 1.9
2018-Feb-15 00:48N 47°15' W 122°23'2 2.8
2018-Feb-15 00:10N 47°17' W 122°25'1 3.6
2018-Feb-15 00:00N 47°17' W 122°25'0 0.4
2018-Feb-14 23:30N 47°17' W 122°25'2 3.6
2018-Feb-14 23:00N 47°16' W 122°23'0 0.4
2018-Feb-14 22:21N 47°16' W 122°23'2 5.8
2018-Feb-14 22:00N 47°17' W 122°26'1 2.8
2018-Feb-14 21:30N 47°15' W 122°26'0 0.0
2018-Feb-14 20:59N 47°15' W 122°26'0 0.0
2018-Feb-14 20:30N 47°15' W 122°26'0 0.0
2018-Feb-14 19:59N 47°15' W 122°26'0 0.0
2018-Feb-14 19:20N 47°15' W 122°26'0 0.0
2018-Feb-14 19:00N 47°15' W 122°26'0 0.0
2018-Feb-14 16:20N 47°15' W 122°26'0 0.0
2018-Feb-14 16:00N 47°15' W 122°26'2 1.7
2018-Feb-14 14:45N 47°15' W 122°23'2 3.6
2018-Feb-14 14:17N 47°17' W 122°25'1 4.8
2018-Feb-14 14:00N 47°18' W 122°26'0 0.5
2018-Feb-14 13:08N 47°18' W 122°26'0 0.2
2018-Feb-14 12:01N 47°18' W 122°26'0 8.0
2018-Feb-14 12:00N 47°17' W 122°26'1 2.9
2018-Feb-14 11:29N 47°16' W 122°25'0 0.8
2018-Feb-14 11:00N 47°16' W 122°25'1 1.8
2018-Feb-14 10:21N 47°15' W 122°26'0 0.0
2018-Feb-14 10:00N 47°15' W 122°26'0 0.0
2018-Feb-14 09:30N 47°15' W 122°26'0 0.0
2018-Feb-14 08:59N 47°15' W 122°26'0 0.0
2018-Feb-14 08:30N 47°15' W 122°26'0 0.0
2018-Feb-14 08:00N 47°15' W 122°26'0 0.0
2018-Feb-14 07:30N 47°15' W 122°26'0 0.0
2018-Feb-14 07:00N 47°15' W 122°26'0 0.0
2018-Feb-14 06:30N 47°15' W 122°26'0 0.0
2018-Feb-14 06:00N 47°15' W 122°26'0 0.0
2018-Feb-14 05:30N 47°15' W 122°26'0 0.0
2018-Feb-14 05:00N 47°15' W 122°26'0 0.0
2018-Feb-14 04:30N 47°15' W 122°26'0 0.0
2018-Feb-14 04:00N 47°15' W 122°26'0 0.0
2018-Feb-14 03:30N 47°15' W 122°26'0 0.0
2018-Feb-14 03:00N 47°15' W 122°26'0 0.0
2018-Feb-14 02:30N 47°15' W 122°26'1 2.5
2018-Feb-14 02:00N 47°16' W 122°26'1 1.2
2018-Feb-14 01:30N 47°16' W 122°25'1 1.3
2018-Feb-14 01:00N 47°17' W 122°25'1 1.2
2018-Feb-14 00:04N 47°18' W 122°26'0 0.0
2018-Feb-13 23:54N 47°18' W 122°26'1 2.6
2018-Feb-13 23:29N 47°17' W 122°25'0 0.3
2018-Feb-13 22:58N 47°17' W 122°25'1 1.3
2018-Feb-13 22:30N 47°17' W 122°26'2 1.1
2018-Feb-13 21:01N 47°15' W 122°26'0 0.0
2018-Feb-13 20:59N 47°15' W 122°26'0 0.0
2018-Feb-13 20:24N 47°15' W 122°26'0 0.0
2018-Feb-13 19:11N 47°15' W 122°26'0 0.0
2018-Feb-13 18:53N 47°15' W 122°26'0 0.0
2018-Feb-13 18:16N 47°15' W 122°26'0 0.0
2018-Feb-13 18:00N 47°15' W 122°26'0 0.0
2018-Feb-13 17:28N 47°15' W 122°26'0 0.0
2018-Feb-13 16:59N 47°15' W 122°26'0 0.0
2018-Feb-13 15:19N 47°15' W 122°26'0 0.0
2018-Feb-13 15:00N 47°15' W 122°26'1 1.4
2018-Feb-13 14:30N 47°16' W 122°26'1 2.5
2018-Feb-13 14:00N 47°17' W 122°25'0 0.1
2018-Feb-13 13:30N 47°16' W 122°25'2 2.9
2018-Feb-13 12:59N 47°15' W 122°26'0 0.0
2018-Feb-13 12:30N 47°15' W 122°26'0 0.0
2018-Feb-13 12:00N 47°15' W 122°26'0 0.0
2018-Feb-13 11:24N 47°15' W 122°26'0 0.0
2018-Feb-13 11:00N 47°15' W 122°26'0 0.0
2018-Feb-13 10:07N 47°15' W 122°26'0 0.1
2018-Feb-13 10:00N 47°15' W 122°26'0 0.0
2018-Feb-13 09:30N 47°15' W 122°26'0 0.0
2018-Feb-13 08:58N 47°15' W 122°26'0 0.0
2018-Feb-13 08:30N 47°15' W 122°26'0 0.0
2018-Feb-13 07:59N 47°15' W 122°26'0 0.0
2018-Feb-13 07:26N 47°15' W 122°26'0 0.0
2018-Feb-13 07:00N 47°15' W 122°26'0 0.0
2018-Feb-13 06:29N 47°15' W 122°26'0 0.0
2018-Feb-13 05:58N 47°15' W 122°26'0 0.0
2018-Feb-13 05:30N 47°15' W 122°26'0 0.0
2018-Feb-13 05:00N 47°15' W 122°26'0 0.0
2018-Feb-13 04:30N 47°15' W 122°26'0 0.0
2018-Feb-13 03:38N 47°15' W 122°26'0 0.7
2018-Feb-13 03:30N 47°15' W 122°26'2 3.3
2018-Feb-13 03:00N 47°16' W 122°24'1 1.6
2018-Feb-13 02:29N 47°16' W 122°23'0 0.2
2018-Feb-13 01:56N 47°16' W 122°23'0 0.1
2018-Feb-13 01:29N 47°16' W 122°23'2 4.5
2018-Feb-13 01:00N 47°16' W 122°26'1 1.2
2018-Feb-13 00:30N 47°15' W 122°26'0 0.0
2018-Feb-13 00:00N 47°15' W 122°26'0 0.0
2018-Feb-12 23:11N 47°15' W 122°26'0 0.0
2018-Feb-12 22:52N 47°15' W 122°26'  

Dump ship's entire track history